Ilminster, United Kingdom
Current Conditions -  °F | °C
As of 6:50 AM on Monday 22 Dec 2014 (Local Time) from EGDY Reporting Station
Broken Clouds Broken Clouds  
Wind Chill: 13°   Ceiling: 1900
Heat Index: 13°   Visibility: 6mi
Dew Point:   Wind: 18mph
Humidity: 77%   Direction: 250°WSW
Pressure: 30.12"   Gusts: NA
Location:  50.93°N, 2.91°W
Report Text: EGDY 220650Z AUTO 25016KT 9999 BKN019/// BKN035/// 13/09 Q1020
Loading
Personal Weather Stations






























Interactive Weather Map New forecast layout! Learn more

10-Day Weather Forecast

Advertisements
Track Severe Weather on mobile